sensor_id;sensor_type;location;lat;lon;timestamp;P1;durP1;ratioP1;P2;durP2;ratioP2
47856;SDS011;33618;49.972;8.242;2022-09-28T00:00:20;3.47;;;2.42;;
47856;SDS011;33618;49.972;8.242;2022-09-28T00:03:07;6.30;;;2.20;;
47856;SDS011;33618;49.972;8.242;2022-09-28T00:08:44;6.43;;;2.40;;
47856;SDS011;33618;49.972;8.242;2022-09-28T00:11:30;2.97;;;2.73;;
47856;SDS011;33618;49.972;8.242;2022-09-28T00:14:15;3.75;;;2.90;;
47856;SDS011;33618;49.972;8.242;2022-09-28T00:17:01;8.57;;;2.45;;
47856;SDS011;33618;49.972;8.242;2022-09-28T00:19:47;3.17;;;2.38;;
47856;SDS011;33618;49.972;8.242;2022-09-28T00:22:32;3.15;;;2.40;;
47856;SDS011;33618;49.972;8.242;2022-09-28T01:41:19;4.88;;;3.03;;
47856;SDS011;33618;49.972;8.242;2022-09-28T01:44:09;4.03;;;3.10;;
47856;SDS011;33618;49.972;8.242;2022-09-28T02:00:45;8.40;;;3.80;;
47856;SDS011;33618;49.972;8.242;2022-09-28T02:03:38;4.50;;;3.63;;
47856;SDS011;33618;49.972;8.242;2022-09-28T02:06:53;7.18;;;3.70;;
47856;SDS011;33618;49.972;8.242;2022-09-28T02:09:52;6.50;;;3.78;;
47856;SDS011;33618;49.972;8.242;2022-09-28T02:12:45;3.85;;;3.40;;
47856;SDS011;33618;49.972;8.242;2022-09-28T02:18:26;7.80;;;3.63;;
47856;SDS011;33618;49.972;8.242;2022-09-28T02:21:14;4.78;;;3.50;;
47856;SDS011;33618;49.972;8.242;2022-09-28T02:24:08;7.18;;;4.30;;
47856;SDS011;33618;49.972;8.242;2022-09-28T02:27:14;6.50;;;4.55;;
47856;SDS011;33618;49.972;8.242;2022-09-28T02:30:08;6.45;;;4.15;;
47856;SDS011;33618;49.972;8.242;2022-09-28T02:32:56;6.07;;;4.22;;
47856;SDS011;33618;49.972;8.242;2022-09-28T02:35:47;5.18;;;3.03;;
47856;SDS011;33618;49.972;8.242;2022-09-28T02:38:32;7.95;;;2.80;;
47856;SDS011;33618;49.972;8.242;2022-09-28T03:04:12;2.03;;;1.45;;
47856;SDS011;33618;49.972;8.242;2022-09-28T03:07:23;1.58;;;1.33;;
47856;SDS011;33618;49.972;8.242;2022-09-28T03:10:24;1.10;;;1.10;;
47856;SDS011;33618;49.972;8.242;2022-09-28T03:13:22;1.23;;;1.13;;
47856;SDS011;33618;49.972;8.242;2022-09-28T03:16:14;2.35;;;1.20;;
47856;SDS011;33618;49.972;8.242;2022-09-28T03:19:01;1.20;;;0.90;;
47856;SDS011;33618;49.972;8.242;2022-09-28T03:21:46;1.95;;;1.10;;
47856;SDS011;33618;49.972;8.242;2022-09-28T03:24:31;1.98;;;1.10;;
47856;SDS011;33618;49.972;8.242;2022-09-28T03:27:17;1.38;;;1.23;;
47856;SDS011;33618;49.972;8.242;2022-09-28T03:30:03;1.23;;;1.10;;
47856;SDS011;33618;49.972;8.242;2022-09-28T03:32:59;3.17;;;1.10;;
47856;SDS011;33618;49.972;8.242;2022-09-28T03:35:46;2.05;;;1.20;;
47856;SDS011;33618;49.972;8.242;2022-09-28T03:38:34;3.08;;;1.02;;
47856;SDS011;33618;49.972;8.242;2022-09-28T03:41:19;3.38;;;1.40;;
47856;SDS011;33618;49.972;8.242;2022-09-28T03:44:05;0.80;;;0.80;;
47856;SDS011;33618;49.972;8.242;2022-09-28T03:46:51;0.90;;;0.90;;
47856;SDS011;33618;49.972;8.242;2022-09-28T03:53:18;1.08;;;0.90;;
47856;SDS011;33618;49.972;8.242;2022-09-28T03:56:05;1.52;;;0.80;;
47856;SDS011;33618;49.972;8.242;2022-09-28T03:58:52;0.85;;;0.85;;
47856;SDS011;33618;49.972;8.242;2022-09-28T04:01:37;1.67;;;0.90;;
47856;SDS011;33618;49.972;8.242;2022-09-28T04:04:23;1.00;;;1.00;;
47856;SDS011;33618;49.972;8.242;2022-09-28T04:07:08;2.15;;;1.15;;
47856;SDS011;33618;49.972;8.242;2022-09-28T04:09:54;2.30;;;0.90;;
47856;SDS011;33618;49.972;8.242;2022-09-28T04:12:40;1.65;;;1.08;;
47856;SDS011;33618;49.972;8.242;2022-09-28T04:15:25;1.05;;;1.00;;
47856;SDS011;33618;49.972;8.242;2022-09-28T04:18:11;2.40;;;0.93;;
47856;SDS011;33618;49.972;8.242;2022-09-28T04:20:58;1.63;;;1.00;;
47856;SDS011;33618;49.972;8.242;2022-09-28T04:23:47;1.25;;;1.00;;
47856;SDS011;33618;49.972;8.242;2022-09-28T04:26:33;1.13;;;1.10;;
47856;SDS011;33618;49.972;8.242;2022-09-28T04:29:18;3.22;;;0.90;;
47856;SDS011;33618;49.972;8.242;2022-09-28T04:32:05;1.10;;;0.90;;
47856;SDS011;33618;49.972;8.242;2022-09-28T04:34:50;1.77;;;1.20;;
47856;SDS011;33618;49.972;8.242;2022-09-28T04:37:35;1.25;;;1.15;;
47856;SDS011;33618;49.972;8.242;2022-09-28T04:40:21;2.72;;;1.20;;
47856;SDS011;33618;49.972;8.242;2022-09-28T04:43:06;3.20;;;1.17;;
47856;SDS011;33618;49.972;8.242;2022-09-28T04:45:52;1.95;;;1.33;;
47856;SDS011;33618;49.972;8.242;2022-09-28T04:56:25;1.08;;;1.00;;
47856;SDS011;33618;49.972;8.242;2022-09-28T04:59:11;1.20;;;1.10;;
47856;SDS011;33618;49.972;8.242;2022-09-28T05:01:57;2.88;;;1.30;;
47856;SDS011;33618;49.972;8.242;2022-09-28T05:04:47;1.40;;;1.30;;
47856;SDS011;33618;49.972;8.242;2022-09-28T05:07:33;2.53;;;1.27;;
47856;SDS011;33618;49.972;8.242;2022-09-28T05:10:19;1.75;;;1.00;;
47856;SDS011;33618;49.972;8.242;2022-09-28T05:13:05;1.90;;;1.10;;
47856;SDS011;33618;49.972;8.242;2022-09-28T05:15:51;1.00;;;1.00;;
47856;SDS011;33618;49.972;8.242;2022-09-28T05:18:44;1.10;;;1.10;;
47856;SDS011;33618;49.972;8.242;2022-09-28T05:21:30;1.73;;;1.27;;
47856;SDS011;33618;49.972;8.242;2022-09-28T05:24:15;5.10;;;1.30;;
47856;SDS011;33618;49.972;8.242;2022-09-28T05:27:01;2.08;;;1.30;;
47856;SDS011;33618;49.972;8.242;2022-09-28T05:29:46;1.80;;;1.23;;
47856;SDS011;33618;49.972;8.242;2022-09-28T05:32:32;1.27;;;1.17;;
47856;SDS011;33618;49.972;8.242;2022-09-28T05:35:18;1.98;;;1.20;;
47856;SDS011;33618;49.972;8.242;2022-09-28T05:38:04;1.42;;;1.30;;
47856;SDS011;33618;49.972;8.242;2022-09-28T05:40:49;1.60;;;1.30;;
47856;SDS011;33618;49.972;8.242;2022-09-28T05:43:35;1.65;;;1.30;;
47856;SDS011;33618;49.972;8.242;2022-09-28T05:46:20;2.05;;;1.33;;
47856;SDS011;33618;49.972;8.242;2022-09-28T05:52:56;1.80;;;1.50;;
47856;SDS011;33618;49.972;8.242;2022-09-28T05:55:45;1.23;;;1.13;;
47856;SDS011;33618;49.972;8.242;2022-09-28T05:58:31;3.08;;;1.10;;
47856;SDS011;33618;49.972;8.242;2022-09-28T06:01:16;1.17;;;1.10;;
47856;SDS011;33618;49.972;8.242;2022-09-28T06:04:02;1.35;;;1.17;;
47856;SDS011;33618;49.972;8.242;2022-09-28T06:06:47;1.88;;;1.30;;
47856;SDS011;33618;49.972;8.242;2022-09-28T06:09:33;1.40;;;1.30;;
47856;SDS011;33618;49.972;8.242;2022-09-28T06:12:18;2.00;;;1.30;;
47856;SDS011;33618;49.972;8.242;2022-09-28T06:15:04;2.75;;;1.20;;
47856;SDS011;33618;49.972;8.242;2022-09-28T06:17:54;1.33;;;1.17;;
47856;SDS011;33618;49.972;8.242;2022-09-28T06:24:50;1.60;;;1.30;;
47856;SDS011;33618;49.972;8.242;2022-09-28T06:27:36;1.48;;;1.38;;
47856;SDS011;33618;49.972;8.242;2022-09-28T06:34:05;1.20;;;1.20;;
47856;SDS011;33618;49.972;8.242;2022-09-28T06:40:33;2.33;;;1.55;;
47856;SDS011;33618;49.972;8.242;2022-09-28T06:47:01;1.75;;;1.40;;
47856;SDS011;33618;49.972;8.242;2022-09-28T06:53:29;1.63;;;1.27;;
47856;SDS011;33618;49.972;8.242;2022-09-28T06:59:58;1.60;;;1.35;;
47856;SDS011;33618;49.972;8.242;2022-09-28T07:06:26;1.70;;;1.40;;
47856;SDS011;33618;49.972;8.242;2022-09-28T07:12:56;2.60;;;1.40;;
47856;SDS011;33618;49.972;8.242;2022-09-28T07:19:48;1.73;;;1.42;;
47856;SDS011;33618;49.972;8.242;2022-09-28T07:30:26;1.60;;;1.10;;
47856;SDS011;33618;49.972;8.242;2022-09-28T07:33:16;1.13;;;1.00;;
47856;SDS011;33618;49.972;8.242;2022-09-28T07:36:02;1.90;;;1.35;;
47856;SDS011;33618;49.972;8.242;2022-09-28T07:38:50;2.75;;;1.20;;
47856;SDS011;33618;49.972;8.242;2022-09-28T07:41:35;2.90;;;1.30;;
47856;SDS011;33618;49.972;8.242;2022-09-28T07:44:23;2.92;;;1.30;;
47856;SDS011;33618;49.972;8.242;2022-09-28T07:47:09;1.40;;;1.30;;
47856;SDS011;33618;49.972;8.242;2022-09-28T07:49:54;1.38;;;1.27;;
47856;SDS011;33618;49.972;8.242;2022-09-28T07:52:41;2.42;;;1.20;;
47856;SDS011;33618;49.972;8.242;2022-09-28T07:55:27;2.63;;;1.50;;
47856;SDS011;33618;49.972;8.242;2022-09-28T07:58:13;1.50;;;1.40;;
47856;SDS011;33618;49.972;8.242;2022-09-28T08:01:01;2.72;;;1.25;;
47856;SDS011;33618;49.972;8.242;2022-09-28T08:03:48;1.70;;;1.40;;
47856;SDS011;33618;49.972;8.242;2022-09-28T08:06:34;2.85;;;1.30;;
47856;SDS011;33618;49.972;8.242;2022-09-28T08:09:19;1.67;;;1.58;;
47856;SDS011;33618;49.972;8.242;2022-09-28T08:12:05;1.77;;;1.27;;
47856;SDS011;33618;49.972;8.242;2022-09-28T08:14:51;2.65;;;1.23;;
47856;SDS011;33618;49.972;8.242;2022-09-28T08:17:37;1.80;;;1.10;;
47856;SDS011;33618;49.972;8.242;2022-09-28T08:20:22;5.40;;;1.50;;
47856;SDS011;33618;49.972;8.242;2022-09-28T08:23:26;2.13;;;1.08;;
47856;SDS011;33618;49.972;8.242;2022-09-28T08:34:01;0.80;;;0.80;;
47856;SDS011;33618;49.972;8.242;2022-09-28T08:36:46;0.90;;;0.90;;
47856;SDS011;33618;49.972;8.242;2022-09-28T08:39:32;0.88;;;0.70;;
47856;SDS011;33618;49.972;8.242;2022-09-28T08:42:32;0.73;;;0.63;;
47856;SDS011;33618;49.972;8.242;2022-09-28T08:45:26;3.67;;;0.90;;
47856;SDS011;33618;49.972;8.242;2022-09-28T08:48:18;1.00;;;0.90;;
47856;SDS011;33618;49.972;8.242;2022-09-28T08:58:21;1.55;;;0.80;;
47856;SDS011;33618;49.972;8.242;2022-09-28T09:01:10;1.75;;;0.80;;
47856;SDS011;33618;49.972;8.242;2022-09-28T09:04:01;1.20;;;0.70;;
47856;SDS011;33618;49.972;8.242;2022-09-28T09:18:37;0.60;;;0.60;;
47856;SDS011;33618;49.972;8.242;2022-09-28T09:24:30;1.75;;;0.70;;
47856;SDS011;33618;49.972;8.242;2022-09-28T09:37:24;0.70;;;0.70;;
47856;SDS011;33618;49.972;8.242;2022-09-28T09:49:26;0.70;;;0.70;;
47856;SDS011;33618;49.972;8.242;2022-09-28T09:58:04;1.35;;;0.60;;
47856;SDS011;33618;49.972;8.242;2022-09-28T10:01:20;2.42;;;0.80;;
47856;SDS011;33618;49.972;8.242;2022-09-28T10:04:48;1.50;;;0.60;;
47856;SDS011;33618;49.972;8.242;2022-09-28T10:07:38;0.70;;;0.70;;
47856;SDS011;33618;49.972;8.242;2022-09-28T10:10:28;1.60;;;0.70;;
47856;SDS011;33618;49.972;8.242;2022-09-28T10:13:19;0.70;;;0.70;;
47856;SDS011;33618;49.972;8.242;2022-09-28T10:16:04;0.52;;;0.52;;
47856;SDS011;33618;49.972;8.242;2022-09-28T10:18:51;2.78;;;0.75;;
47856;SDS011;33618;49.972;8.242;2022-09-28T10:21:36;2.45;;;0.50;;
47856;SDS011;33618;49.972;8.242;2022-09-28T10:34:25;0.82;;;0.50;;
47856;SDS011;33618;49.972;8.242;2022-09-28T10:37:12;0.93;;;0.57;;
47856;SDS011;33618;49.972;8.242;2022-09-28T10:39:58;0.57;;;0.50;;
47856;SDS011;33618;49.972;8.242;2022-09-28T10:42:43;0.82;;;0.63;;
47856;SDS011;33618;49.972;8.242;2022-09-28T10:45:33;0.60;;;0.60;;
47856;SDS011;33618;49.972;8.242;2022-09-28T10:48:21;1.17;;;0.45;;
47856;SDS011;33618;49.972;8.242;2022-09-28T10:51:06;2.58;;;0.60;;
47856;SDS011;33618;49.972;8.242;2022-09-28T10:53:59;0.45;;;0.45;;
47856;SDS011;33618;49.972;8.242;2022-09-28T10:56:46;3.22;;;0.90;;
47856;SDS011;33618;49.972;8.242;2022-09-28T10:59:35;0.60;;;0.50;;
47856;SDS011;33618;49.972;8.242;2022-09-28T11:02:24;0.68;;;0.60;;
47856;SDS011;33618;49.972;8.242;2022-09-28T11:05:19;2.17;;;0.70;;
47856;SDS011;33618;49.972;8.242;2022-09-28T11:08:23;0.95;;;0.60;;
47856;SDS011;33618;49.972;8.242;2022-09-28T11:11:15;0.60;;;0.60;;
47856;SDS011;33618;49.972;8.242;2022-09-28T11:14:03;3.13;;;0.70;;
47856;SDS011;33618;49.972;8.242;2022-09-28T11:23:20;0.75;;;0.60;;
47856;SDS011;33618;49.972;8.242;2022-09-28T11:34:11;0.77;;;0.70;;
47856;SDS011;33618;49.972;8.242;2022-09-28T11:37:25;1.27;;;0.70;;
47856;SDS011;33618;49.972;8.242;2022-09-28T11:43:20;2.05;;;0.65;;
47856;SDS011;33618;49.972;8.242;2022-09-28T11:49:15;1.00;;;0.50;;
47856;SDS011;33618;49.972;8.242;2022-09-28T11:52:40;1.15;;;0.77;;
47856;SDS011;33618;49.972;8.242;2022-09-28T11:55:37;0.52;;;0.40;;
47856;SDS011;33618;49.972;8.242;2022-09-28T11:58:29;1.42;;;0.60;;
47856;SDS011;33618;49.972;8.242;2022-09-28T12:01:33;0.98;;;0.60;;
47856;SDS011;33618;49.972;8.242;2022-09-28T12:04:34;1.02;;;0.60;;
47856;SDS011;33618;49.972;8.242;2022-09-28T12:07:26;1.42;;;0.77;;
47856;SDS011;33618;49.972;8.242;2022-09-28T12:13:45;1.15;;;0.70;;
47856;SDS011;33618;49.972;8.242;2022-09-28T12:16:37;0.63;;;0.60;;
47856;SDS011;33618;49.972;8.242;2022-09-28T12:19:48;0.55;;;0.55;;
47856;SDS011;33618;49.972;8.242;2022-09-28T12:22:47;1.98;;;0.70;;
47856;SDS011;33618;49.972;8.242;2022-09-28T12:25:58;1.73;;;0.70;;
47856;SDS011;33618;49.972;8.242;2022-09-28T12:32:37;0.60;;;0.60;;
47856;SDS011;33618;49.972;8.242;2022-09-28T12:39:02;0.95;;;0.63;;
47856;SDS011;33618;49.972;8.242;2022-09-28T13:07:55;0.68;;;0.68;;
47856;SDS011;33618;49.972;8.242;2022-09-28T13:23:22;0.60;;;0.60;;
47856;SDS011;33618;49.972;8.242;2022-09-28T13:37:08;2.28;;;0.60;;
47856;SDS011;33618;49.972;8.242;2022-09-28T13:40:07;2.05;;;0.63;;
47856;SDS011;33618;49.972;8.242;2022-09-28T13:43:05;2.90;;;0.57;;
47856;SDS011;33618;49.972;8.242;2022-09-28T13:46:13;1.27;;;0.60;;
47856;SDS011;33618;49.972;8.242;2022-09-28T13:52:11;0.80;;;0.57;;
47856;SDS011;33618;49.972;8.242;2022-09-28T14:01:10;0.63;;;0.63;;
47856;SDS011;33618;49.972;8.242;2022-09-28T14:04:12;1.67;;;0.60;;
47856;SDS011;33618;49.972;8.242;2022-09-28T14:07:10;2.90;;;0.70;;
47856;SDS011;33618;49.972;8.242;2022-09-28T14:10:20;2.25;;;0.70;;
47856;SDS011;33618;49.972;8.242;2022-09-28T14:13:08;0.70;;;0.63;;
47856;SDS011;33618;49.972;8.242;2022-09-28T14:15:57;1.23;;;0.70;;
47856;SDS011;33618;49.972;8.242;2022-09-28T14:31:43;0.77;;;0.50;;
47856;SDS011;33618;49.972;8.242;2022-09-28T14:34:30;0.68;;;0.68;;
47856;SDS011;33618;49.972;8.242;2022-09-28T14:37:20;0.95;;;0.77;;
47856;SDS011;33618;49.972;8.242;2022-09-28T14:44:14;0.77;;;0.50;;
47856;SDS011;33618;49.972;8.242;2022-09-28T14:50:27;0.70;;;0.50;;
47856;SDS011;33618;49.972;8.242;2022-09-28T14:53:16;1.80;;;0.80;;
47856;SDS011;33618;49.972;8.242;2022-09-28T14:56:05;1.75;;;0.70;;
47856;SDS011;33618;49.972;8.242;2022-09-28T14:58:53;0.60;;;0.60;;
47856;SDS011;33618;49.972;8.242;2022-09-28T15:01:40;0.60;;;0.60;;
47856;SDS011;33618;49.972;8.242;2022-09-28T15:04:32;0.70;;;0.50;;
47856;SDS011;33618;49.972;8.242;2022-09-28T15:07:29;0.93;;;0.52;;
47856;SDS011;33618;49.972;8.242;2022-09-28T15:10:37;0.70;;;0.70;;
47856;SDS011;33618;49.972;8.242;2022-09-28T15:13:29;2.60;;;0.73;;
47856;SDS011;33618;49.972;8.242;2022-09-28T15:16:15;1.05;;;0.88;;
47856;SDS011;33618;49.972;8.242;2022-09-28T15:19:14;1.92;;;0.80;;
47856;SDS011;33618;49.972;8.242;2022-09-28T15:22:16;3.38;;;0.88;;
47856;SDS011;33618;49.972;8.242;2022-09-28T15:25:13;0.90;;;0.70;;
47856;SDS011;33618;49.972;8.242;2022-09-28T15:35:58;2.05;;;0.90;;
47856;SDS011;33618;49.972;8.242;2022-09-28T15:38:52;1.10;;;1.00;;
47856;SDS011;33618;49.972;8.242;2022-09-28T15:41:41;0.98;;;0.88;;
47856;SDS011;33618;49.972;8.242;2022-09-28T15:44:30;0.93;;;0.82;;
47856;SDS011;33618;49.972;8.242;2022-09-28T15:47:24;0.82;;;0.80;;
47856;SDS011;33618;49.972;8.242;2022-09-28T15:50:19;1.15;;;1.05;;
47856;SDS011;33618;49.972;8.242;2022-09-28T15:53:05;2.58;;;1.00;;
47856;SDS011;33618;49.972;8.242;2022-09-28T15:55:51;1.10;;;1.00;;
47856;SDS011;33618;49.972;8.242;2022-09-28T15:58:37;0.98;;;0.80;;
47856;SDS011;33618;49.972;8.242;2022-09-28T16:10:28;1.52;;;1.00;;
47856;SDS011;33618;49.972;8.242;2022-09-28T16:13:17;2.28;;;0.88;;
47856;SDS011;33618;49.972;8.242;2022-09-28T16:16:04;2.28;;;1.00;;
47856;SDS011;33618;49.972;8.242;2022-09-28T16:18:49;1.75;;;0.90;;
47856;SDS011;33618;49.972;8.242;2022-09-28T16:21:38;3.80;;;1.35;;
47856;SDS011;33618;49.972;8.242;2022-09-28T16:24:34;1.95;;;1.40;;
47856;SDS011;33618;49.972;8.242;2022-09-28T16:27:26;2.95;;;1.40;;
47856;SDS011;33618;49.972;8.242;2022-09-28T16:33:56;2.00;;;1.17;;
47856;SDS011;33618;49.972;8.242;2022-09-28T16:44:45;1.25;;;0.90;;
47856;SDS011;33618;49.972;8.242;2022-09-28T16:47:30;1.80;;;1.20;;
47856;SDS011;33618;49.972;8.242;2022-09-28T16:50:21;2.92;;;1.52;;
47856;SDS011;33618;49.972;8.242;2022-09-28T16:53:10;2.95;;;1.85;;
47856;SDS011;33618;49.972;8.242;2022-09-28T16:56:16;3.60;;;2.60;;
47856;SDS011;33618;49.972;8.242;2022-09-28T16:59:02;8.60;;;5.65;;
47856;SDS011;33618;49.972;8.242;2022-09-28T17:01:48;4.70;;;3.10;;
47856;SDS011;33618;49.972;8.242;2022-09-28T17:04:33;3.25;;;2.85;;
47856;SDS011;33618;49.972;8.242;2022-09-28T17:07:20;4.47;;;3.63;;
47856;SDS011;33618;49.972;8.242;2022-09-28T17:10:49;2.00;;;1.88;;
47856;SDS011;33618;49.972;8.242;2022-09-28T17:13:41;5.40;;;2.00;;
47856;SDS011;33618;49.972;8.242;2022-09-28T17:16:30;1.73;;;1.50;;
47856;SDS011;33618;49.972;8.242;2022-09-28T17:19:37;1.67;;;1.50;;
47856;SDS011;33618;49.972;8.242;2022-09-28T17:22:22;2.13;;;1.40;;
47856;SDS011;33618;49.972;8.242;2022-09-28T17:25:08;1.70;;;1.40;;
47856;SDS011;33618;49.972;8.242;2022-09-28T17:27:57;1.60;;;1.50;;
47856;SDS011;33618;49.972;8.242;2022-09-28T17:38:25;1.35;;;1.10;;
47856;SDS011;33618;49.972;8.242;2022-09-28T17:41:11;1.52;;;1.40;;
47856;SDS011;33618;49.972;8.242;2022-09-28T17:44:04;1.88;;;1.55;;
47856;SDS011;33618;49.972;8.242;2022-09-28T17:46:50;1.48;;;1.38;;
47856;SDS011;33618;49.972;8.242;2022-09-28T17:49:36;1.57;;;1.47;;
47856;SDS011;33618;49.972;8.242;2022-09-28T17:52:22;1.42;;;1.30;;
47856;SDS011;33618;49.972;8.242;2022-09-28T17:55:08;4.47;;;1.58;;
47856;SDS011;33618;49.972;8.242;2022-09-28T17:57:54;3.10;;;1.98;;
47856;SDS011;33618;49.972;8.242;2022-09-28T18:00:40;3.10;;;2.45;;
47856;SDS011;33618;49.972;8.242;2022-09-28T18:03:25;2.58;;;1.85;;
47856;SDS011;33618;49.972;8.242;2022-09-28T18:06:12;3.03;;;1.80;;
47856;SDS011;33618;49.972;8.242;2022-09-28T18:09:00;2.35;;;1.70;;
47856;SDS011;33618;49.972;8.242;2022-09-28T18:11:46;2.40;;;1.95;;
47856;SDS011;33618;49.972;8.242;2022-09-28T18:14:36;2.55;;;1.77;;
47856;SDS011;33618;49.972;8.242;2022-09-28T18:17:23;7.68;;;1.60;;
47856;SDS011;33618;49.972;8.242;2022-09-28T18:20:09;3.83;;;1.75;;
47856;SDS011;33618;49.972;8.242;2022-09-28T18:22:56;3.50;;;2.10;;
47856;SDS011;33618;49.972;8.242;2022-09-28T18:25:42;4.55;;;2.15;;
47856;SDS011;33618;49.972;8.242;2022-09-28T18:28:28;2.70;;;1.85;;
47856;SDS011;33618;49.972;8.242;2022-09-28T18:34:55;2.05;;;1.58;;
47856;SDS011;33618;49.972;8.242;2022-09-28T18:37:41;3.38;;;1.85;;
47856;SDS011;33618;49.972;8.242;2022-09-28T18:40:26;2.35;;;1.85;;
47856;SDS011;33618;49.972;8.242;2022-09-28T18:43:13;3.47;;;1.77;;
47856;SDS011;33618;49.972;8.242;2022-09-28T18:46:03;7.25;;;1.83;;
47856;SDS011;33618;49.972;8.242;2022-09-28T18:48:51;2.55;;;2.05;;
47856;SDS011;33618;49.972;8.242;2022-09-28T18:51:36;2.83;;;1.85;;
47856;SDS011;33618;49.972;8.242;2022-09-28T18:54:22;4.25;;;2.10;;
47856;SDS011;33618;49.972;8.242;2022-09-28T18:57:08;4.53;;;2.22;;
47856;SDS011;33618;49.972;8.242;2022-09-28T18:59:53;4.72;;;2.10;;
47856;SDS011;33618;49.972;8.242;2022-09-28T19:02:39;2.35;;;1.80;;
47856;SDS011;33618;49.972;8.242;2022-09-28T19:05:25;1.92;;;1.80;;
47856;SDS011;33618;49.972;8.242;2022-09-28T19:08:11;4.40;;;1.90;;
47856;SDS011;33618;49.972;8.242;2022-09-28T19:11:07;1.90;;;1.80;;
47856;SDS011;33618;49.972;8.242;2022-09-28T19:13:55;2.58;;;2.03;;
47856;SDS011;33618;49.972;8.242;2022-09-28T19:16:41;2.70;;;2.13;;
47856;SDS011;33618;49.972;8.242;2022-09-28T19:19:28;3.17;;;1.92;;
47856;SDS011;33618;49.972;8.242;2022-09-28T19:22:14;4.43;;;2.35;;
47856;SDS011;33618;49.972;8.242;2022-09-28T19:24:59;2.72;;;2.00;;
47856;SDS011;33618;49.972;8.242;2022-09-28T19:27:45;3.45;;;2.10;;
47856;SDS011;33618;49.972;8.242;2022-09-28T19:38:13;4.43;;;2.50;;
47856;SDS011;33618;49.972;8.242;2022-09-28T19:40:59;3.33;;;2.50;;
47856;SDS011;33618;49.972;8.242;2022-09-28T19:43:45;3.15;;;2.80;;
47856;SDS011;33618;49.972;8.242;2022-09-28T19:46:30;4.85;;;2.80;;
47856;SDS011;33618;49.972;8.242;2022-09-28T19:49:17;4.85;;;3.10;;
47856;SDS011;33618;49.972;8.242;2022-09-28T19:52:07;5.63;;;3.03;;
47856;SDS011;33618;49.972;8.242;2022-09-28T19:55:00;4.90;;;3.33;;
47856;SDS011;33618;49.972;8.242;2022-09-28T19:57:47;7.20;;;3.10;;
47856;SDS011;33618;49.972;8.242;2022-09-28T20:00:33;4.73;;;3.37;;
47856;SDS011;33618;49.972;8.242;2022-09-28T20:03:20;5.90;;;4.20;;
47856;SDS011;33618;49.972;8.242;2022-09-28T20:06:06;5.22;;;3.58;;
47856;SDS011;33618;49.972;8.242;2022-09-28T20:08:52;8.50;;;3.65;;
47856;SDS011;33618;49.972;8.242;2022-09-28T20:11:38;7.65;;;5.10;;
47856;SDS011;33618;49.972;8.242;2022-09-28T20:14:23;5.13;;;4.18;;
47856;SDS011;33618;49.972;8.242;2022-09-28T20:17:14;4.30;;;3.85;;
47856;SDS011;33618;49.972;8.242;2022-09-28T20:19:59;7.45;;;3.30;;
47856;SDS011;33618;49.972;8.242;2022-09-28T20:22:45;2.70;;;2.50;;
47856;SDS011;33618;49.972;8.242;2022-09-28T20:25:31;4.07;;;2.70;;
47856;SDS011;33618;49.972;8.242;2022-09-28T20:28:17;3.65;;;3.05;;
47856;SDS011;33618;49.972;8.242;2022-09-28T20:34:45;9.93;;;4.80;;
47856;SDS011;33618;49.972;8.242;2022-09-28T20:37:31;8.90;;;3.30;;
47856;SDS011;33618;49.972;8.242;2022-09-28T20:40:17;3.70;;;3.20;;
47856;SDS011;33618;49.972;8.242;2022-09-28T20:43:03;8.77;;;5.90;;
47856;SDS011;33618;49.972;8.242;2022-09-28T20:48:36;4.43;;;3.58;;
47856;SDS011;33618;49.972;8.242;2022-09-28T20:51:22;6.07;;;4.60;;
47856;SDS011;33618;49.972;8.242;2022-09-28T20:54:07;6.80;;;5.25;;
47856;SDS011;33618;49.972;8.242;2022-09-28T20:56:53;5.70;;;5.03;;
47856;SDS011;33618;49.972;8.242;2022-09-28T20:59:39;4.15;;;3.05;;
47856;SDS011;33618;49.972;8.242;2022-09-28T21:02:24;4.32;;;3.50;;
47856;SDS011;33618;49.972;8.242;2022-09-28T21:05:10;6.88;;;3.30;;
47856;SDS011;33618;49.972;8.242;2022-09-28T21:07:56;4.10;;;3.17;;
47856;SDS011;33618;49.972;8.242;2022-09-28T21:10:42;5.05;;;3.42;;
47856;SDS011;33618;49.972;8.242;2022-09-28T21:13:28;6.97;;;3.87;;
47856;SDS011;33618;49.972;8.242;2022-09-28T21:16:14;4.80;;;3.13;;
47856;SDS011;33618;49.972;8.242;2022-09-28T21:19:02;5.45;;;3.00;;
47856;SDS011;33618;49.972;8.242;2022-09-28T21:21:47;6.90;;;3.38;;
47856;SDS011;33618;49.972;8.242;2022-09-28T21:24:33;5.68;;;3.40;;
47856;SDS011;33618;49.972;8.242;2022-09-28T21:27:18;3.70;;;3.13;;
47856;SDS011;33618;49.972;8.242;2022-09-28T21:30:04;4.95;;;3.50;;
47856;SDS011;33618;49.972;8.242;2022-09-28T21:36:32;5.53;;;3.50;;
47856;SDS011;33618;49.972;8.242;2022-09-28T21:39:18;4.47;;;3.03;;
47856;SDS011;33618;49.972;8.242;2022-09-28T21:42:04;4.90;;;3.03;;
47856;SDS011;33618;49.972;8.242;2022-09-28T21:44:49;3.50;;;2.90;;
47856;SDS011;33618;49.972;8.242;2022-09-28T21:47:35;5.95;;;2.92;;
47856;SDS011;33618;49.972;8.242;2022-09-28T21:50:24;6.90;;;3.40;;
47856;SDS011;33618;49.972;8.242;2022-09-28T21:53:10;6.43;;;3.45;;
47856;SDS011;33618;49.972;8.242;2022-09-28T21:55:56;7.50;;;2.95;;
47856;SDS011;33618;49.972;8.242;2022-09-28T22:01:28;5.53;;;3.25;;
47856;SDS011;33618;49.972;8.242;2022-09-28T22:04:13;3.83;;;2.95;;
47856;SDS011;33618;49.972;8.242;2022-09-28T22:06:59;3.50;;;3.20;;
47856;SDS011;33618;49.972;8.242;2022-09-28T22:09:44;6.00;;;3.67;;
47856;SDS011;33618;49.972;8.242;2022-09-28T22:12:35;8.05;;;3.65;;
47856;SDS011;33618;49.972;8.242;2022-09-28T22:15:21;4.00;;;3.42;;
47856;SDS011;33618;49.972;8.242;2022-09-28T22:18:06;5.82;;;3.55;;
47856;SDS011;33618;49.972;8.242;2022-09-28T22:21:05;7.90;;;3.80;;
47856;SDS011;33618;49.972;8.242;2022-09-28T22:23:58;7.07;;;3.70;;
47856;SDS011;33618;49.972;8.242;2022-09-28T22:26:45;4.25;;;3.33;;
47856;SDS011;33618;49.972;8.242;2022-09-28T22:29:30;4.57;;;3.67;;
47856;SDS011;33618;49.972;8.242;2022-09-28T22:39:58;5.18;;;3.35;;
47856;SDS011;33618;49.972;8.242;2022-09-28T22:42:44;4.32;;;3.38;;
47856;SDS011;33618;49.972;8.242;2022-09-28T22:45:29;4.32;;;3.65;;
47856;SDS011;33618;49.972;8.242;2022-09-28T22:48:15;4.30;;;3.53;;
47856;SDS011;33618;49.972;8.242;2022-09-28T22:51:00;4.90;;;3.55;;
47856;SDS011;33618;49.972;8.242;2022-09-28T22:53:47;6.68;;;3.63;;
47856;SDS011;33618;49.972;8.242;2022-09-28T22:56:33;3.97;;;3.22;;
47856;SDS011;33618;49.972;8.242;2022-09-28T22:59:18;5.30;;;3.75;;
47856;SDS011;33618;49.972;8.242;2022-09-28T23:02:04;6.30;;;3.40;;
47856;SDS011;33618;49.972;8.242;2022-09-28T23:04:49;6.47;;;3.80;;
47856;SDS011;33618;49.972;8.242;2022-09-28T23:07:35;8.55;;;4.15;;
47856;SDS011;33618;49.972;8.242;2022-09-28T23:10:20;4.80;;;3.75;;
47856;SDS011;33618;49.972;8.242;2022-09-28T23:13:06;5.50;;;3.72;;
47856;SDS011;33618;49.972;8.242;2022-09-28T23:15:58;3.95;;;3.60;;
47856;SDS011;33618;49.972;8.242;2022-09-28T23:18:46;5.07;;;3.65;;
47856;SDS011;33618;49.972;8.242;2022-09-28T23:21:33;5.93;;;3.58;;
47856;SDS011;33618;49.972;8.242;2022-09-28T23:24:20;6.45;;;3.90;;
47856;SDS011;33618;49.972;8.242;2022-09-28T23:27:06;4.80;;;3.40;;
47856;SDS011;33618;49.972;8.242;2022-09-28T23:29:51;3.78;;;3.38;;
47856;SDS011;33618;49.972;8.242;2022-09-28T23:36:20;3.83;;;3.35;;
47856;SDS011;33618;49.972;8.242;2022-09-28T23:39:06;3.85;;;3.20;;
47856;SDS011;33618;49.972;8.242;2022-09-28T23:41:51;4.13;;;3.53;;
47856;SDS011;33618;49.972;8.242;2022-09-28T23:48:58;3.60;;;3.15;;
47856;SDS011;33618;49.972;8.242;2022-09-28T23:51:43;3.55;;;3.10;;
47856;SDS011;33618;49.972;8.242;2022-09-28T23:54:29;4.68;;;3.33;;
47856;SDS011;33618;49.972;8.242;2022-09-28T23:57:15;4.00;;;3.60;;
